Latest Weather Observations for Sydney Harbour

IDN60801

Issued at 2:35 am EST Sunday 20 April 2014 (issued every 30 minutes, with the page automatically refreshed every 10 minutes)

About weather observations | Map of weather stations | Latest weather observations for NSW | Other Formats
Station Details ID: 066196 Name: WEDDING CAKE WEST Lat: -33.84 Lon: 151.26 Height: 6.0 m
Data from the previous 72 hours. | See also: Recent months for locations in New South Wales
Date/Time
EST
Temp
°C
App
Temp
°C
Dew
Point
Rel
Hum
%
Delta-T
°C
Wind Press
QNH
hPa
Press
MSL
hPa
Rain
since 9 am
mm
Dir
 
Spd
km/h
Gust
km/h
Spd
kts
Gust
kts
20/02:30am 15.5 - - - - W 15 19 8 10 - - -
20/02:00am 16.2 - - - - WNW 15 19 8 10 - - -
20/01:30am 16.0 - - - - W 13 17 7 9 - - -
20/01:00am 16.6 - - - - WSW 15 20 8 11 - - -
20/12:30am 16.7 - - - - WSW 17 20 9 11 - - -
20/12:00am 16.7 - - - - W 17 24 9 13 - - -
 
Date/Time
EST
Temp
°C
App
Temp
°C
Dew
Point
Rel
Hum
%
Delta-T
°C
Wind Press
QNH
hPa
Press
MSL
hPa
Rain
since 9 am
mm
Dir
 
Spd
km/h
Gust
km/h
Spd
kts
Gust
kts
19/11:30pm 16.7 - - - - W 19 24 10 13 - - -
19/11:00pm 17.0 - - - - W 19 24 10 13 - - -
19/10:30pm 17.2 - - - - W 22 28 12 15 - - -
19/10:00pm 17.5 - - - - W 22 26 12 14 - - -
19/09:30pm 17.7 - - - - W 19 22 10 12 - - -
19/09:00pm 19.1 - - - - SW 19 20 10 11 - - -
19/08:30pm 19.2 - - - - SSW 17 20 9 11 - - -
19/08:00pm 19.1 - - - - SSW 17 19 9 10 - - -
19/07:30pm 19.3 - - - - SSW 15 19 8 10 - - -
19/07:00pm 19.2 - - - - S 20 28 11 15 - - -
19/06:30pm 19.1 - - - - S 20 30 11 16 - - -
19/06:00pm 19.2 - - - - S 24 32 13 17 - - -
19/05:30pm 18.9 - - - - S 26 35 14 19 - - -
19/05:00pm 19.0 - - - - S 28 37 15 20 - - -
19/04:30pm 18.9 - - - - S 30 37 16 20 - - -
19/04:00pm 18.9 - - - - S 30 37 16 20 - - -
19/03:30pm 18.9 - - - - S 30 35 16 19 - - -
19/03:00pm 18.8 - - - - S 30 37 16 20 - - -
19/02:30pm 19.1 - - - - S 30 39 16 21 - - -
19/02:00pm 19.2 - - - - S 24 33 13 18 - - -
19/01:30pm 19.1 - - - - S 28 35 15 19 - - -
19/01:00pm 19.0 - - - - S 28 33 15 18 - - -
19/12:30pm 19.2 - - - - SSE 26 33 14 18 - - -
19/12:00pm 19.1 - - - - S 24 32 13 17 - - -
19/11:30am 18.7 - - - - S 24 32 13 17 - - -
19/11:00am 19.0 - - - - S 22 30 12 16 - - -
19/10:30am 19.0 - - - - S 24 30 13 16 - - -
19/10:00am 19.0 - - - - S 24 32 13 17 - - -
19/09:30am 18.8 - - - - S 26 30 14 16 - - -
19/09:00am 19.2 - - - - SSW 20 24 11 13 - - -
19/08:30am 18.5 - - - - SW 15 19 8 10 - - -
19/08:00am 18.4 - - - - SW 19 22 10 12 - - -
19/07:30am 17.7 - - - - SW 20 22 11 12 - - -
19/07:00am 17.9 - - - - SW 20 24 11 13 - - -
19/06:30am 17.8 - - - - SW 22 26 12 14 - - -
19/06:00am 17.9 - - - - SW 22 26 12 14 - - -
19/05:30am 18.4 - - - - SW 19 24 10 13 - - -
19/05:00am 18.8 - - - - SW 20 24 11 13 - - -
19/04:30am 18.6 - - - - SW 19 20 10 11 - - -
19/04:00am 18.9 - - - - SW 17 26 9 14 - - -
19/03:30am 19.0 - - - - W 15 19 8 10 - - -
19/03:00am 19.3 - - - - WSW 13 17 7 9 - - -
19/02:30am 19.5 - - - - WSW 17 19 9 10 - - -
19/02:00am 19.5 - - - - SW 20 22 11 12 - - -
19/01:30am 19.8 - - - - SW 24 30 13 16 - - -
19/01:00am 19.7 - - - - WSW 17 20 9 11 - - -
19/12:30am 19.6 - - - - WSW 15 20 8 11 - - -
19/12:00am 20.2 - - - - W 17 24 9 13 - - -
 
Date/Time
EST
Temp
°C
App
Temp
°C
Dew
Point
Rel
Hum
%
Delta-T
°C
Wind Press
QNH
hPa
Press
MSL
hPa
Rain
since 9 am
mm
Dir
 
Spd
km/h
Gust
km/h
Spd
kts
Gust
kts
18/11:30pm 20.5 - - - - W 17 20 9 11 - - -
18/11:00pm 20.5 - - - - W 15 20 8 11 - - -
18/10:30pm 20.9 - - - - W 19 24 10 13 - - -
18/10:00pm 21.2 - - - - WNW 17 24 9 13 - - -
18/09:30pm 21.4 - - - - WNW 19 24 10 13 - - -
18/09:00pm 21.4 - - - - W 13 17 7 9 - - -
18/08:30pm 21.5 - - - - W 11 15 6 8 - - -
18/08:00pm 21.6 - - - - W 9 11 5 6 - - -
18/07:30pm 22.1 - - - - W 9 17 5 9 - - -
18/07:00pm 21.5 - - - - SW 2 7 1 4 - - -
18/06:30pm 21.4 - - - - CALM 0 0 0 0 - - -
18/06:00pm 21.3 - - - - SW 7 11 4 6 - - -
18/05:30pm 21.9 - - - - SSE 13 17 7 9 - - -
18/05:00pm 22.4 - - - - S 17 20 9 11 - - -
18/04:30pm 23.0 - - - - S 24 32 13 17 - - -
18/04:00pm 24.5 - - - - WSW 20 30 11 16 - - -
18/03:30pm 24.5 - - - - W 20 28 11 15 - - -
18/03:00pm 24.2 - - - - W 15 22 8 12 - - -
18/02:30pm 23.7 - - - - W 11 20 6 11 - - -
18/02:00pm 23.2 - - - - W 15 20 8 11 - - -
18/01:30pm 23.1 - - - - W 17 26 9 14 - - -
18/01:00pm 22.3 - - - - W 15 22 8 12 - - -
18/12:30pm 22.2 - - - - WSW 20 26 11 14 - - -
18/12:00pm 21.7 - - - - W 22 30 12 16 - - -
18/11:30am 21.0 - - - - W 22 28 12 15 - - -
18/11:00am 20.4 - - - - WSW 24 35 13 19 - - -
18/10:30am 19.5 - - - - WSW 19 26 10 14 - - -
18/10:00am 18.4 - - - - WSW 20 26 11 14 - - -
18/09:30am 17.3 - - - - WSW 20 24 11 13 - - -
18/09:00am 16.5 - - - - WSW 19 26 10 14 - - -
18/08:30am 16.1 - - - - W 22 24 12 13 - - -
18/08:00am 15.4 - - - - WSW 22 26 12 14 - - -
18/07:30am 15.2 - - - - W 24 28 13 15 - - -
18/07:00am 14.9 - - - - W 22 30 12 16 - - -
18/06:30am 14.8 - - - - W 26 30 14 16 - - -
18/06:00am 15.0 - - - - W 22 30 12 16 - - -
18/05:30am 14.8 - - - - W 20 26 11 14 - - -
18/05:00am 15.0 - - - - W 22 26 12 14 - - -
18/04:30am 15.5 - - - - W 22 28 12 15 - - -
18/04:00am 15.7 - - - - W 20 26 11 14 - - -
18/03:30am 16.1 - - - - W 20 24 11 13 - - -
18/03:00am 15.7 - - - - W 22 26 12 14 - - -
18/02:30am 16.4 - - - - W 20 26 11 14 - - -
18/02:00am 16.7 - - - - WSW 20 26 11 14 - - -
18/01:30am 16.8 - - - - W 22 28 12 15 - - -
18/01:00am 17.0 - - - - W 22 28 12 15 - - -
18/12:30am 17.1 - - - - W 20 24 11 13 - - -
18/12:00am 17.6 - - - - W 24 30 13 16 - - -
 
Date/Time
EST
Temp
°C
App
Temp
°C
Dew
Point
Rel
Hum
%
Delta-T
°C
Wind Press
QNH
hPa
Press
MSL
hPa
Rain
since 9 am
mm
Dir
 
Spd
km/h
Gust
km/h
Spd
kts
Gust
kts
17/11:30pm 17.8 - - - - W 24 30 13 16 - - -
17/11:00pm 17.9 - - - - W 22 28 12 15 - - -
17/10:30pm 18.2 - - - - W 22 28 12 15 - - -
17/10:00pm 18.5 - - - - W 20 26 11 14 - - -
17/09:30pm 19.0 - - - - W 19 22 10 12 - - -
17/09:00pm 19.9 - - - - SW 15 19 8 10 - - -
17/08:30pm 20.0 - - - - SSW 17 22 9 12 - - -
17/08:00pm 20.2 - - - - S 22 28 12 15 - - -
17/07:30pm 20.3 - - - - S 22 30 12 16 - - -
17/07:00pm 20.3 - - - - S 24 35 13 19 - - -
17/06:30pm 20.3 - - - - S 30 39 16 21 - - -
17/06:00pm 20.1 - - - - S 32 41 17 22 - - -
17/05:30pm 20.2 - - - - S 33 41 18 22 - - -
17/05:00pm 20.6 - - - - S 30 39 16 21 - - -
17/04:30pm 20.6 - - - - S 33 44 18 24 - - -
17/04:00pm 21.1 - - - - S 33 41 18 22 - - -
17/03:30pm 21.2 - - - - S 32 43 17 23 - - -
17/03:00pm 21.2 - - - - S 28 37 15 20 - - -
17/02:30pm 20.9 - - - - S 32 35 17 19 - - -
17/02:00pm 20.6 - - - - S 28 35 15 19 - - -
17/01:30pm 20.7 - - - - S 24 35 13 19 - - -
17/01:00pm 20.0 - - - - S 30 37 16 20 - - -
17/12:51pm 20.1 - - - - SSE 32 35 17 19 - - -
17/12:30pm 20.2 - - - - S 37 46 20 25 - - -
17/12:00pm 20.0 - - - - SSW 32 41 17 22 - - -
17/11:30am 20.2 - - - - S 32 39 17 21 - - -
17/11:00am 20.0 - - - - SSW 32 39 17 21 - - -
17/10:30am 19.9 - - - - SSW 28 43 15 23 - - -
17/10:18am 19.9 - - - - SSW 28 43 15 23 - - -
17/10:00am 19.1 - - - - WSW 15 19 8 10 - - -
17/09:30am 18.3 - - - - WSW 17 20 9 11 - - -
17/09:00am 17.2 - - - - WSW 20 24 11 13 - - -
17/08:30am 16.1 - - - - W 24 30 13 16 - - -
17/08:00am 15.4 - - - - W 24 30 13 16 - - -
17/07:30am 15.3 - - - - W 24 30 13 16 - - -
17/07:00am 15.1 - - - - W 24 30 13 16 - - -
17/06:30am 15.3 - - - - W 24 30 13 16 - - -
17/06:00am 15.2 - - - - W 30 35 16 19 - - -
17/05:30am 15.2 - - - - W 30 35 16 19 - - -
17/05:00am 15.4 - - - - W 30 35 16 19 - - -
17/04:30am 15.7 - - - - W 30 35 16 19 - - -
17/04:00am 15.5 - - - - W 28 33 15 18 - - -
17/03:30am 15.7 - - - - W 30 35 16 19 - - -
17/03:00am 15.7 - - - - W 28 33 15 18 - - -

Other Formats:

Comma delimited format used in spreadsheet applications
http://www.bom.gov.au/fwo/IDN60801/IDN60801.95766.axf

JavaScript Object Notation format (JSON) in row-major order
http://www.bom.gov.au/fwo/IDN60801/IDN60801.95766.json